Tiempo atmosférico en la estación meteorológica de El Maíllo, Salamanca (1027 m.)



Fecha
DESCASC
Temp. máxima en grados centígrados (hora)
DESCASC
Temp. mínima en grados centígrados (hora)
DESCASC
Temp. media en grados centígrados
DESCASC
Racha de viento máxima en m/sg (hora)
DESCASC
Velocidad máxima media en intervalos de 10 minutos(hora)
DESCASC
Precipitaciones diarias en mm
DESCASC
Precipitaciones de 00:00 a 06:00 en mm
DESCASC
Precipitaciones de 06:00 a 12:00 en mm
DESCASC
Precipitaciones de 12:00 a 18:00 en mm
DESCASC
Precipitaciones de 18:00 a 24:00 en mm
DESCASC
20-06-2018 28.9 (18:20) 15.3 (07:10) 22.1 8.89 (20:40) 4.17 (15:30) -- -- -- -- --
19-06-2018 27.3 (19:00) 13.5 (06:40) 20.4 6.67 (03:30) 5 (03:20) -- -- -- -- --
18-06-2018 26.2 (18:00) 17.4 (06:00) 21.8 10.83 (19:20) 6.94 (09:30) -- -- -- -- --
17-06-2018 25.7 (17:30) 12 (07:10) 18.9 8.33 (15:10) 5 (19:10) -- -- -- -- --
16-06-2018 25 (18:50) 11 (05:50) 18 7.78 (14:00) 4.44 (01:40) -- -- -- -- --
15-06-2018 24.8 (17:10) 11.5 (03:30) 18.1 8.06 (14:20) 5 (15:30) -- -- -- -- --
14-06-2018 21.7 (19:00) 10.5 (00:00) 16.1 7.5 (15:40) 4.72 (15:00) -- -- -- -- --
13-06-2018 20 (18:50) 7.5 (07:00) 13.8 7.22 (19:00) 4.44 (18:10) -- -- -- -- --
12-06-2018 20 (18:20) 10.3 (07:20) 15.2 8.33 (20:30) 6.11 (20:30) -- -- -- -- --
11-06-2018 16.2 (18:20) 8.9 (05:20) 12.6 9.72 (21:30) 5.28 (21:30) -- -- -- -- --
10-06-2018 14.6 (15:40) 9.2 (00:00) 11.9 8.61 (21:00) 6.39 (21:00) -- -- -- -- --
09-06-2018 15.1 (19:00) 4.8 (00:00) 10 8.61 (19:10) 5.28 (13:30) -- -- -- -- --
08-06-2018 15.7 (15:40) 9.2 (00:00) 12.4 15.28 (11:10) 8.89 (11:10) -- -- -- -- --
07-06-2018 17.3 (11:50) 8.9 (00:00) 13.1 10.83 (23:50) 8.06 (23:50) -- -- -- -- --
06-06-2018 17.1 (19:40) 8.7 (00:00) 12.9 6.67 (19:50) 4.72 (20:50) -- -- -- -- --
05-06-2018 11.8 (14:20) 7.1 (00:00) 9.5 7.78 (17:30) 5.56 (17:30) -- -- -- -- --
04-06-2018 14 (15:10) 7.9 (00:00) 11 12.5 (18:20) 8.33 (18:40) -- -- -- -- --
03-06-2018 17.7 (16:10) 7.5 (00:00) 12.6 8.89 (16:30) 6.11 (22:40) -- -- -- -- --
02-06-2018 19.9 (20:20) 7.1 (00:00) 13.5 6.39 (18:30) 3.89 (21:50) -- -- -- -- --
01-06-2018 14.7 (14:50) 9.2 (00:00) 11.9 8.33 (11:40) 5.28 (16:40) -- -- -- -- --
31-05-2018 16.6 (19:10) 8.5 (08:50) 12.6 8.33 (13:30) 5 (15:00) -- -- -- -- --
30-05-2018 14.6 (16:50) 8.9 (00:00) 11.8 7.78 (17:50) 5.28 (18:10) -- -- -- -- --
29-05-2018 15.7 (15:30) 8.6 (00:00) 12.2 10 (12:20) 6.67 (12:20) -- -- -- -- --
28-05-2018 13.3 (17:30) 8.2 (00:00) 10.8 5 (20:00) 3.61 (20:00) -- -- -- -- --
27-05-2018 17.5 (13:00) 8.2 (00:00) 12.8 7.78 (13:30) 5.56 (15:20) -- -- -- -- --
26-05-2018 15.6 (16:00) 6.7 (00:00) 11.2 7.22 (04:10) 4.44 (04:10) -- -- -- -- --
25-05-2018 15.9 (13:40) 8.3 (00:00) 12.1 8.33 (15:00) 6.11 (15:00) -- -- -- -- --
24-05-2018 16.4 (09:10) 10.6 (00:00) 13.5 8.33 (09:10) 5.28 (09:10) -- -- -- -- --
23-05-2018 21.5 (17:40) 10.2 (00:00) 15.8 10.28 (12:40) 5.83 (20:00) -- -- -- -- --
22-05-2018 20 (19:10) 8.6 (00:00) 14.3 8.06 (18:20) 5.56 (18:30) -- -- -- -- --

Gráficas

Temp. máximas Temp. mínimas Temp. medias Precipitaciones Rachas de viento máximas Velocidades máximas media en intervalos de 10 minutos

Datos horarios

Fecha y hora oficial Temperatura (ºC) Velocidad del viento (km/h) Dirección del viento Racha (km/h) Dirección de racha Precipitación (mm) Presión (hPa) Tendencia (hPa) Humedad (%)
2018-06-20 23:00:00 17.4 10 Sudoeste 23 Sudoeste -- -- -- 86
2018-06-20 22:00:00 18.8 15 Sudoeste 22 Sudoeste -- -- -- 75
2018-06-20 21:00:00 20.4 10 Sudoeste 32 Noroeste -- -- -- 69
2018-06-20 20:00:00 23.8 4 Sudoeste 17 Nordeste -- -- -- 63
2018-06-20 19:00:00 26.4 5 Sur 17 Noroeste -- -- -- 56
2018-06-20 18:00:00 28.6 8 Oeste 15 Noroeste -- -- -- 41
2018-06-20 17:00:00 26.7 0 Calma 20 Norte -- -- -- 48
2018-06-20 16:00:00 23.4 3 Sudoeste 26 Sudoeste -- -- -- 59
2018-06-20 15:00:00 25.1 5 Sudoeste 10 Sudoeste -- -- -- 62
2018-06-20 14:00:00 25 6 Oeste 9 Oeste -- -- -- 66
2018-06-20 13:00:00 25.1 5 Sudoeste 12 Sudoeste -- -- -- 61
2018-06-20 12:00:00 26.7 5 Norte 13 Norte -- -- -- 45
2018-06-20 11:00:00 26.3 4 Oeste 12 Sudoeste -- -- -- 46
2018-06-20 10:00:00 25.8 2 Este 12 Este -- -- -- 46
2018-06-20 09:00:00 21.6 8 Sudeste 14 Sudeste -- -- -- 63
2018-06-20 08:00:00 17 12 Sudeste 14 Sur -- -- -- 74
2018-06-20 07:00:00 15.4 10 Sudeste 15 Sur -- -- -- 77
2018-06-20 06:00:00 16.2 11 Sur 16 Sur -- -- -- 73
2018-06-20 05:00:00 15.8 8 Sudeste 12 Sur -- -- -- 77
2018-06-20 04:00:00 15.9 5 Sudeste 11 Sur -- -- -- 80
2018-06-20 03:00:00 16.3 11 Sudeste 15 Sur -- -- -- 79
2018-06-20 02:00:00 16.1 8 Sudeste 12 Sudeste -- -- -- 78
2018-06-20 01:00:00 16.9 11 Sur 14 Sur -- -- -- 77
2018-06-20 00:00:00 17.3 11 Sur 13 Sur -- -- -- 77
2018-06-19 23:00:00 18.2 9 Sudeste 11 Sudeste -- -- -- 78
2018-06-19 22:00:00 22.9 5 Este 9 Este -- -- -- 64
2018-06-19 21:00:00 25.4 6 Nordeste 13 Este -- -- -- 56
2018-06-19 20:00:00 25.6 12 Este 15 Nordeste -- -- -- 54
2018-06-19 19:00:00 27.3 8 Este 14 Este -- -- -- 54
2018-06-19 18:00:00 27.2 8 Nordeste 16 Nordeste -- -- -- 50
2018-06-19 17:00:00 26.6 6 Norte 16 Norte -- -- -- 50
2018-06-19 16:00:00 26.5 5 Noroeste 20 Noroeste -- -- -- 55
2018-06-19 15:00:00 25.6 8 Norte 21 Norte -- -- -- 57
2018-06-19 14:00:00 24.6 7 Norte 17 Noroeste -- -- -- 58
2018-06-19 13:00:00 23.7 7 Norte 17 Noroeste -- -- -- 60
2018-06-19 12:00:00 21.7 9 Noroeste 18 Noroeste -- -- -- 65
2018-06-19 11:00:00 20.1 6 Noroeste 12 Noroeste -- -- -- 68
2018-06-19 10:00:00 18.7 6 Noroeste 9 Oeste -- -- -- 73
2018-06-19 09:00:00 15.9 2 Noroeste 7 Oeste -- -- -- 80
2018-06-19 08:00:00 14 5 Nordeste 11 Norte -- -- -- 87
2018-06-19 07:00:00 14 5 Este 14 Nordeste -- -- -- 83
2018-06-19 06:00:00 15.1 11 Este 18 Este -- -- -- 78
2018-06-19 05:00:00 15.1 13 Nordeste 18 Este -- -- -- 79
2018-06-19 04:00:00 17.9 14 Este 24 Este -- -- -- 58
2018-06-19 03:00:00 17.8 18 Este 24 Este -- -- -- 64
2018-06-19 02:00:00 17.5 15 Este 24 Este -- -- -- 70
2018-06-19 01:00:00 18.6 14 Este 23 Este -- -- -- 69
2018-06-19 00:00:00 19.4 18 Este 28 Nordeste -- -- -- 64
2018-06-18 23:00:00 19.9 14 Este 23 Este -- -- -- 61
2018-06-18 22:00:00 21.1 8 Este 22 Nordeste -- -- -- 57
2018-06-18 21:00:00 24.3 16 Nordeste 28 Nordeste -- -- -- 45
2018-06-18 20:00:00 25.5 19 Nordeste 39 Este -- -- -- 40
2018-06-18 19:00:00 26.1 17 Nordeste 32 Nordeste -- -- -- 39
2018-06-18 18:00:00 26.2 19 Nordeste 30 Nordeste -- -- -- 37
2018-06-18 17:00:00 26.1 20 Nordeste 32 Este -- -- -- 39
2018-06-18 16:00:00 25.7 19 Nordeste 33 Nordeste -- -- -- 40
2018-06-18 15:00:00 25 23 Nordeste 34 Nordeste -- -- -- 46
2018-06-18 14:00:00 24.3 23 Nordeste 35 Nordeste -- -- -- 48
2018-06-18 13:00:00 23.9 20 Este 32 Este -- -- -- 49
2018-06-18 12:00:00 23 21 Nordeste 36 Nordeste -- -- -- 49
2018-06-18 11:00:00 22.7 19 Este 35 Este -- -- -- 47
2018-06-18 10:00:00 22 24 Este 38 Este -- -- -- 47
2018-06-18 09:00:00 20.8 23 Este 34 Este -- -- -- 51
2018-06-18 08:00:00 18.9 21 Este 36 Este -- -- -- 53
2018-06-18 07:00:00 18 20 Este 30 Este -- -- -- 53
2018-06-18 06:00:00 17.4 14 Este 27 Este -- -- -- 53
2018-06-18 05:00:00 18.7 18 Este 26 Este -- -- -- 48
2018-06-18 04:00:00 19.7 16 Este 28 Este -- -- -- 46
2018-06-18 03:00:00 19.5 18 Este 33 Este -- -- -- 39
2018-06-18 02:00:00 20.3 23 Este 37 Sudeste -- -- -- 38
2018-06-18 01:00:00 19.5 20 Este 30 Este -- -- -- 43
2018-06-18 00:00:00 18.6 15 Este 21 Este -- -- -- 55
2018-06-17 23:00:00 18.7 14 Este 18 Este -- -- -- 62
2018-06-17 22:00:00 20.4 10 Este 15 Nordeste -- -- -- 59
2018-06-17 21:00:00 23.8 13 Nordeste 26 Nordeste -- -- -- 44
2018-06-17 20:00:00 24.7 15 Nordeste 26 Nordeste -- -- -- 45
2018-06-17 19:00:00 25.3 15 Nordeste 26 Nordeste -- -- -- 46
2018-06-17 18:00:00 25.5 14 Nordeste 26 Nordeste -- -- -- 45
2018-06-17 17:00:00 25.6 16 Nordeste 27 Nordeste -- -- -- 43
2018-06-17 16:00:00 25.2 14 Nordeste 30 Nordeste -- -- -- 44
2018-06-17 15:00:00 24.8 15 Nordeste 28 Nordeste -- -- -- 47
2018-06-17 14:00:00 24.5 14 Nordeste 28 Nordeste -- -- -- 50
2018-06-17 13:00:00 24 16 Nordeste 25 Nordeste -- -- -- 49
2018-06-17 12:00:00 22.9 13 Nordeste 21 Norte -- -- -- 53
2018-06-17 11:00:00 21.8 10 Norte 17 Norte -- -- -- 52
2018-06-17 10:00:00 21.2 8 Nordeste 13 Nordeste -- -- -- 54
2018-06-17 09:00:00 19.4 9 Nordeste 13 Nordeste -- -- -- 50
2018-06-17 08:00:00 16.4 8 Este 12 Este -- -- -- 53
2018-06-17 07:00:00 12.3 6 Sudeste 13 Este -- -- -- 62
2018-06-17 06:00:00 16 12 Este 17 Este -- -- -- 47
2018-06-17 05:00:00 18 13 Este 21 Sudeste -- -- -- 46
2018-06-17 04:00:00 18.2 14 Este 22 Este -- -- -- 45
2018-06-17 03:00:00 18.5 14 Este 26 Este -- -- -- 40
2018-06-17 02:00:00 17.7 13 Este 20 Este -- -- -- 48
2018-06-17 01:00:00 16.7 11 Este 16 Este -- -- -- 57
2018-06-17 00:00:00 16.9 11 Este 15 Este -- -- -- 60
2018-06-16 23:00:00 17.9 8 Este 11 Este -- -- -- 61
2018-06-16 22:00:00 19.7 6 Este 12 Norte -- -- -- 60
2018-06-16 21:00:00 23.3 8 Norte 19 Norte -- -- -- 48
2018-06-16 20:00:00 24.3 12 Nordeste 20 Nordeste -- -- -- 46
2018-06-16 19:00:00 24.9 13 Norte 22 Nordeste -- -- -- 47
2018-06-16 18:00:00 24.8 11 Nordeste 22 Norte -- -- -- 48
2018-06-16 17:00:00 24.3 13 Nordeste 26 Nordeste -- -- -- 52
2018-06-16 16:00:00 23.8 13 Nordeste 25 Nordeste -- -- -- 57
2018-06-16 15:00:00 23.7 13 Norte 26 Norte -- -- -- 56
2018-06-16 14:00:00 22.8 12 Nordeste 28 Norte -- -- -- 59
2018-06-16 13:00:00 22.7 11 Nordeste 24 Nordeste -- -- -- 64
2018-06-16 12:00:00 21.6 12 Norte 20 Norte -- -- -- 68
2018-06-16 11:00:00 21.6 11 Norte 20 Este -- -- -- 67
2018-06-16 10:00:00 21.1 14 Este 23 Este -- -- -- 56
2018-06-16 09:00:00 17.8 10 Este 16 Este -- -- -- 77
2018-06-16 08:00:00 14.6 4 Norte 14 Este -- -- -- 85
2018-06-16 07:00:00 12.6 7 Nordeste 9 Este -- -- -- 91
2018-06-16 06:00:00 11.2 6 Sudeste 9 Sur -- -- -- 93
2018-06-16 05:00:00 12.1 5 Sur 12 Sur -- -- -- 88
2018-06-16 04:00:00 12.6 4 Sudoeste 13 Sur -- -- -- 86
2018-06-16 03:00:00 13.1 11 Sur 18 Sur -- -- -- 82
2018-06-16 02:00:00 14.1 10 Sur 18 Sur -- -- -- 71
2018-06-16 01:00:00 14.3 9 Sur 14 Sur -- -- -- 72
2018-06-16 00:00:00 15.3 11 Sur 14 Sur -- -- -- 73
2018-06-15 23:00:00 16.2 9 Sur 13 Sur -- -- -- 72
2018-06-15 22:00:00 19 6 Sur 10 Sur -- -- -- 59
2018-06-15 21:00:00 21.6 9 Noroeste 18 Noroeste -- -- -- 46
2018-06-15 20:00:00 24.1 10 Norte 27 Noroeste -- -- -- 46
2018-06-15 19:00:00 24.7 10 Norte 22 Noroeste -- -- -- 50
2018-06-15 18:00:00 24.7 13 Noroeste 26 Noroeste -- -- -- 47
2018-06-15 17:00:00 24.7 12 Noroeste 27 Oeste -- -- -- 54
2018-06-15 16:00:00 24.2 16 Noroeste 28 Oeste -- -- -- 52
2018-06-15 15:00:00 23.9 17 Oeste 29 Noroeste -- -- -- 50
2018-06-15 14:00:00 23 16 Noroeste 24 Noroeste -- -- -- 53
2018-06-15 13:00:00 22.6 9 Noroeste 18 Oeste -- -- -- 56
2018-06-15 12:00:00 21.6 10 Noroeste 17 Noroeste -- -- -- 54
2018-06-15 11:00:00 20.8 3 Norte 8 Oeste -- -- -- 51
2018-06-15 10:00:00 19.3 2 Sur 9 Noroeste -- -- -- 53
2018-06-15 09:00:00 17.4 2 Sudoeste 13 Sur -- -- -- 64
2018-06-15 08:00:00 13.5 10 Sur 13 Sur -- -- -- 71
2018-06-15 07:00:00 12.6 6 Sur 20 Sur -- -- -- 70
2018-06-15 06:00:00 12.7 17 Sur 20 Sur -- -- -- 69
2018-06-15 05:00:00 12.6 13 Sur 17 Sur -- -- -- 70
2018-06-15 04:00:00 11.8 10 Sudeste 12 Sudeste -- -- -- 74
2018-06-15 03:00:00 13 9 Sudeste 15 Este -- -- -- 69
2018-06-15 02:00:00 13.9 8 Sudeste 16 Este -- -- -- 66
2018-06-15 01:00:00 14.5 12 Este 14 Este -- -- -- 60
2018-06-15 00:00:00 15.3 9 Este 13 Este -- -- -- 60
2018-06-14 23:00:00 15.7 8 Este 12 Este -- -- -- 63
2018-06-14 22:00:00 17.5 8 Este 18 Nordeste -- -- -- 58
2018-06-14 21:00:00 20.4 13 Nordeste 23 Nordeste -- -- -- 46
2018-06-14 20:00:00 21.3 15 Nordeste 23 Nordeste -- -- -- 42
2018-06-14 19:00:00 21.7 13 Nordeste 24 Norte -- -- -- 43
2018-06-14 18:00:00 21.5 14 Nordeste 24 Norte -- -- -- 45
2018-06-14 17:00:00 21.5 12 Norte 26 Este -- -- -- 48
2018-06-14 16:00:00 20.6 11 Nordeste 27 Nordeste -- -- -- 54
2018-06-14 15:00:00 19.7 17 Nordeste 26 Norte -- -- -- 51
2018-06-14 14:00:00 19.3 15 Nordeste 26 Nordeste -- -- -- 53
2018-06-14 13:00:00 18.8 12 Nordeste 24 Nordeste -- -- -- 60
2018-06-14 12:00:00 17.9 12 Nordeste 22 Nordeste -- -- -- 60
2018-06-14 11:00:00 17.7 11 Nordeste 21 Nordeste -- -- -- 59
2018-06-14 10:00:00 17 14 Este 19 Nordeste -- -- -- 57
2018-06-14 09:00:00 16.2 9 Nordeste 12 Nordeste -- -- -- 62
2018-06-14 08:00:00 12.4 8 Este 11 Este -- -- -- 74
2018-06-14 07:00:00 12.2 9 Sudeste 13 Este -- -- -- 71
2018-06-14 06:00:00 12.4 11 Este 13 Este -- -- -- 70
2018-06-14 05:00:00 11.8 9 Sudeste 13 Este -- -- -- 74
2018-06-14 04:00:00 11.2 6 Sudeste 15 Este -- -- -- 77
2018-06-14 03:00:00 13.7 10 Este 18 Este -- -- -- 66
2018-06-14 02:00:00 14.1 12 Este 18 Este -- -- -- 64
2018-06-14 01:00:00 13.9 12 Este 18 Este -- -- -- 64
2018-06-14 00:00:00 13.7 14 Este 18 Este -- -- -- 65
2018-06-13 23:00:00 14 12 Este 17 Este -- -- -- 66
2018-06-13 22:00:00 14.7 10 Este 13 Nordeste -- -- -- 69
2018-06-13 21:00:00 17.3 12 Nordeste 21 Norte -- -- -- 59
2018-06-13 20:00:00 19.3 14 Norte 26 Norte -- -- -- 53
2018-06-13 19:00:00 20 15 Norte 26 Norte -- -- -- 57
2018-06-13 18:00:00 19.9 12 Nordeste 23 Norte -- -- -- 58
2018-06-13 17:00:00 19.8 12 Norte 26 Norte -- -- -- 57
2018-06-13 16:00:00 19.4 9 Norte 25 Nordeste -- -- -- 54
2018-06-13 15:00:00 19.3 13 Norte 21 Norte -- -- -- 59
2018-06-13 14:00:00 18.9 8 Norte 20 Norte -- -- -- 64
2018-06-13 13:00:00 18.2 8 Norte 23 Norte -- -- -- 62
2018-06-13 12:00:00 17.4 12 Nordeste 24 Nordeste -- -- -- 62
2018-06-13 11:00:00 16.3 14 Nordeste 20 Nordeste -- -- -- 67
2018-06-13 10:00:00 15.1 14 Nordeste 21 Este -- -- -- 71
2018-06-13 09:00:00 13.7 14 Nordeste 18 Nordeste -- -- -- 79
2018-06-13 08:00:00 10.8 5 Nordeste 10 Este -- -- -- 95
2018-06-13 07:00:00 7.5 2 Este 10 Sur -- -- -- 97
2018-06-13 06:00:00 7.8 6 Sur 9 Sur -- -- -- 96
2018-06-13 05:00:00 8.7 5 Sudeste 8 Sudeste -- -- -- 96
2018-06-13 04:00:00 9.2 4 Sudeste 13 Sur -- -- -- 94
2018-06-13 03:00:00 9.9 14 Sur 18 Sur -- -- -- 93
2018-06-13 02:00:00 10.4 13 Sur 16 Sur -- -- -- 91
2018-06-13 01:00:00 11.1 5 Sur 15 Sur -- -- -- 89
2018-06-13 00:00:00 11.6 12 Sur 15 Sur -- -- -- 90
2018-06-12 23:00:00 12.6 10 Sur 12 Sur -- -- -- 88
2018-06-12 22:00:00 15 5 Este 19 Nordeste -- -- -- 82
2018-06-12 21:00:00 17.2 14 Nordeste 30 Noroeste -- -- -- 75
2018-06-12 20:00:00 19.8 19 Noroeste 28 Noroeste -- -- -- 60
2018-06-12 19:00:00 19.6 14 Noroeste 24 Noroeste -- -- -- 60
2018-06-12 18:00:00 19.7 13 Noroeste 24 Oeste -- -- -- 58
2018-06-12 17:00:00 19.4 13 Noroeste 24 Noroeste -- -- -- 65
2018-06-12 16:00:00 18.4 6 Norte 19 Noroeste -- -- -- 71
2018-06-12 15:00:00 18.2 7 Norte 18 Noroeste -- -- -- 67
2018-06-12 14:00:00 17.2 8 Noroeste 22 Noroeste -- -- -- 76
2018-06-12 13:00:00 15.9 7 Noroeste 15 Noroeste -- -- -- 75
2018-06-12 12:00:00 14.3 4 Norte 15 Oeste -- -- -- 80
2018-06-12 11:00:00 12.7 5 Noroeste 13 Noroeste -- -- -- 85
2018-06-12 10:00:00 12.4 5 Noroeste 11 Noroeste -- -- -- 87
2018-06-12 09:00:00 10.8 5 Noroeste 10 Noroeste -- -- -- 97
2018-06-12 08:00:00 10.4 5 Noroeste 12 Noroeste -- -- -- 99
2018-06-12 07:00:00 10.4 8 Noroeste 12 Noroeste -- -- -- 99
2018-06-12 06:00:00 10.5 6 Noroeste 11 Oeste -- -- -- 98
2018-06-12 05:00:00 10.6 5 Oeste 14 Oeste -- -- -- 97
2018-06-12 04:00:00 10.7 5 Oeste 13 Oeste -- -- -- 97
2018-06-12 03:00:00 10.9 6 Oeste 14 Oeste -- -- -- 96
2018-06-12 02:00:00 10.9 10 Oeste 18 Oeste -- -- -- 96
2018-06-12 01:00:00 11.2 13 Oeste 21 Sudoeste -- -- -- 95
2018-06-12 00:00:00 11.7 11 Oeste 16 Oeste -- -- -- 94
2018-06-11 23:00:00 11.8 6 Oeste 19 Oeste -- -- -- 93
2018-06-11 22:00:00 13 13 Noroeste 35 Noroeste -- -- -- 87
2018-06-11 21:00:00 14.8 9 Oeste 19 Oeste -- -- -- 74
2018-06-11 20:00:00 14.9 8 Oeste 21 Noroeste -- -- -- 75
2018-06-11 19:00:00 15.3 13 Oeste 27 Oeste -- -- -- 71
2018-06-11 18:00:00 15.2 14 Oeste 23 Oeste -- -- -- 71
2018-06-11 17:00:00 14.8 12 Oeste 19 Noroeste -- -- -- 74
2018-06-11 16:00:00 15 14 Oeste 23 Oeste -- -- -- 72
2018-06-11 15:00:00 14.4 13 Noroeste 20 Noroeste -- -- -- 74
2018-06-11 14:00:00 12.9 9 Oeste 18 Oeste -- -- -- 79
2018-06-11 13:00:00 11.9 8 Oeste 19 Noroeste -- -- -- 85
2018-06-11 12:00:00 10.8 12 Oeste 21 Oeste -- -- -- 87
2018-06-11 11:00:00 9.8 8 Oeste 18 Oeste -- -- -- 100
2018-06-11 10:00:00 9.2 10 Oeste 22 Oeste -- -- -- 100
2018-06-11 09:00:00 9 13 Oeste 20 Oeste -- -- -- 100
2018-06-11 08:00:00 9 11 Oeste 19 Oeste -- -- -- 100
2018-06-11 07:00:00 8.9 12 Oeste 23 Oeste -- -- -- 100
2018-06-11 06:00:00 8.9 11 Oeste 20 Sudoeste -- -- -- 99
2018-06-11 05:00:00 9 10 Oeste 19 Oeste -- -- -- 99
2018-06-11 04:00:00 9 11 Oeste 19 Oeste -- -- -- 99
2018-06-11 03:00:00 9.2 14 Oeste 20 Oeste -- -- -- 98
2018-06-11 02:00:00 9.3 10 Sudoeste 17 Sudoeste -- -- -- 97
2018-06-11 01:00:00 9.3 12 Oeste 19 Oeste -- -- -- 96
2018-06-11 00:00:00 9.2 10 Sudoeste 17 Oeste -- -- -- 95
2018-06-10 23:00:00 9.8 9 Sudoeste 24 Oeste -- -- -- 93
2018-06-10 22:00:00 11.2 14 Oeste 30 Oeste -- -- -- 94
2018-06-10 21:00:00 12.4 23 Oeste 31 Oeste -- -- -- 93
2018-06-10 20:00:00 11.7 9 Sudoeste 18 Sudoeste -- -- -- 96
2018-06-10 19:00:00 11.8 14 Sudoeste 27 Sudoeste -- -- -- 96
2018-06-10 18:00:00 11.9 11 Oeste 23 Sudoeste -- -- -- 93
2018-06-10 17:00:00 13.2 19 Sudoeste 29 Sur -- -- -- 85
2018-06-10 16:00:00 13.9 15 Sudoeste 27 Sudoeste -- -- -- 83
2018-06-10 15:00:00 12.3 10 Sudoeste 28 Sudoeste -- -- -- 89
2018-06-10 14:00:00 11.9 13 Sudoeste 19 Sudoeste -- -- -- 92
2018-06-10 13:00:00 12.2 11 Sudoeste 22 Sur -- -- -- 86
2018-06-10 12:00:00 11 13 Sudoeste 24 Sudoeste -- -- -- 92
2018-06-10 11:00:00 10.4 16 Sudoeste 24 Sudoeste -- -- -- 93
2018-06-10 10:00:00 10.4 12 Sudoeste 24 Sur -- -- -- 93
2018-06-10 09:00:00 9.3 12 Sur 20 Sur -- -- -- 94
2018-06-10 08:00:00 9.3 10 Sur 26 Sur -- -- -- 92
2018-06-10 07:00:00 10.1 12 Sudoeste 26 Sur -- -- -- 89
2018-06-10 06:00:00 10 13 Sudoeste 22 Sudoeste -- -- -- 90
2018-06-10 05:00:00 10 0 Calma 4 Oeste -- -- -- 96
2018-06-10 04:00:00 10.1 0 Calma 2 Noroeste -- -- -- 96
2018-06-10 03:00:00 10.2 0 Calma 3 Oeste -- -- -- 96
2018-06-10 02:00:00 10.1 0 Calma 4 Noroeste -- -- -- 96
2018-06-10 01:00:00 10.2 0 Calma 4 Noroeste -- -- -- 96
2018-06-10 00:00:00 10.2 3 Oeste 6 Noroeste -- -- -- 96
2018-06-09 23:00:00 10.4 3 Noroeste 17 Sudoeste -- -- -- 93
2018-06-09 22:00:00 11.8 10 Sudoeste 17 Sudoeste -- -- -- 79
2018-06-09 21:00:00 12.7 12 Sudoeste 28 Sudoeste -- -- -- 72
2018-06-09 20:00:00 13.9 13 Sudoeste 31 Sudoeste -- -- -- 66
2018-06-09 19:00:00 15.1 12 Sudoeste 29 Sudoeste -- -- -- 65
2018-06-09 18:00:00 14.2 14 Sudoeste 26 Sur -- -- -- 67
2018-06-09 17:00:00 13.4 13 Sudoeste 26 Sur -- -- -- 68
2018-06-09 16:00:00 14.4 12 Sur 26 Sudoeste -- -- -- 65
2018-06-09 15:00:00 13.7 18 Sudoeste 29 Sudoeste -- -- -- 68
2018-06-09 14:00:00 13.9 14 Sudoeste 28 Sur -- -- -- 70
2018-06-09 13:00:00 13.7 17 Sudoeste 27 Sudoeste -- -- -- 66
2018-06-09 12:00:00 13.2 15 Sudoeste 26 Oeste -- -- -- 69
2018-06-09 11:00:00 12.2 12 Sudoeste 21 Oeste -- -- -- 69
2018-06-09 10:00:00 11.6 8 Sudoeste 17 Sudoeste -- -- -- 73
2018-06-09 09:00:00 9.8 9 Sur 18 Sur -- -- -- 84
2018-06-09 08:00:00 7 3 Sur 13 Sur -- -- -- 99
2018-06-09 07:00:00 4.8 7 Sur 13 Sur -- -- -- 97
2018-06-09 06:00:00 4.9 4 Sur 12 Sur -- -- -- 96
2018-06-09 05:00:00 5.2 4 Sudeste 13 Sudeste -- -- -- 96
2018-06-09 04:00:00 5.8 6 Sur 10 Sur -- -- -- 95
2018-06-09 03:00:00 6.5 6 Sudeste 15 Sur -- -- -- 95
2018-06-09 02:00:00 7.2 6 Sur 9 Sur -- -- -- 92
2018-06-09 01:00:00 8.8 7 Oeste 15 Sudoeste -- -- -- 90
2018-06-09 00:00:00 9.3 11 Sudoeste 18 Sudoeste -- -- -- 86
2018-06-08 23:00:00 9.4 12 Sudoeste 21 Sudoeste -- -- -- 87
2018-06-08 22:00:00 9.5 11 Sudoeste 24 Sudoeste -- -- -- 89
2018-06-08 21:00:00 10.8 10 Sudoeste 21 Sudoeste -- -- -- 86
2018-06-08 20:00:00 11.3 13 Sudoeste 31 Sudoeste -- -- -- 82
2018-06-08 19:00:00 13.2 19 Sudoeste 35 Oeste -- -- -- 77
2018-06-08 18:00:00 14.4 25 Sur 39 Sur -- -- -- 65
2018-06-08 17:00:00 13.9 19 Sudoeste 44 Sur -- -- -- 76
2018-06-08 16:00:00 15.6 21 Sur 42 Sudoeste -- -- -- 64
2018-06-08 15:00:00 15.3 28 Sudoeste 47 Sur -- -- -- 68
2018-06-08 14:00:00 14.5 21 Sur 45 Sur -- -- -- 73
2018-06-08 13:00:00 14.1 24 Sur 44 Sudoeste -- -- -- 75
2018-06-08 12:00:00 13.6 19 Sur 55 Sur -- -- -- 78
2018-06-08 11:00:00 12.6 22 Sur 52 Sur -- -- -- 87
2018-06-08 10:00:00 12.4 24 Sur 55 Sudeste -- -- -- 89
2018-06-08 09:00:00 12.2 26 Sur 44 Sudeste -- -- -- 90
2018-06-08 08:00:00 12.4 5 Sudeste 42 Sur -- -- -- 89
2018-06-08 07:00:00 12 19 Sur 32 Sur -- -- -- 91
2018-06-08 06:00:00 11.7 6 Sur 23 Sudeste -- -- -- 94
2018-06-08 05:00:00 11.4 11 Sudeste 26 Sudoeste -- -- -- 94
2018-06-08 04:00:00 11.5 6 Norte 23 Sur -- -- -- 93
2018-06-08 03:00:00 11.4 18 Sur 41 Sur -- -- -- 93
2018-06-08 02:00:00 11.8 10 Sudeste 28 Sudeste -- -- -- 92
2018-06-08 01:00:00 11.9 18 Sudeste 41 Sudeste -- -- -- 92
2018-06-08 00:00:00 12.1 23 Sur 39 Sudeste -- -- -- 92
2018-06-07 23:00:00 12.1 14 Sur 26 Sur -- -- -- 92
2018-06-07 22:00:00 11.7 17 Sur 27 Sur -- -- -- 92
2018-06-07 21:00:00 12.4 13 Sur 23 Sudoeste -- -- -- 89
2018-06-07 20:00:00 12.8 18 Sudoeste 34 Sur -- -- -- 84
2018-06-07 19:00:00 13.6 10 Sudeste 38 Sudoeste -- -- -- 85
2018-06-07 18:00:00 14.7 22 Sudoeste 33 Sudoeste -- -- -- 77
2018-06-07 17:00:00 17.2 13 Sudoeste 34 Sudoeste -- -- -- 65
2018-06-07 16:00:00 16.4 14 Sur 29 Sudoeste -- -- -- 65
2018-06-07 15:00:00 15.8 15 Sur 25 Sudeste -- -- -- 73
2018-06-07 14:00:00 15.9 10 Sur 25 Sur -- -- -- 72
2018-06-07 13:00:00 16.2 10 Sudoeste 28 Sudoeste -- -- -- 70
2018-06-07 12:00:00 17.2 16 Oeste 30 Sudoeste -- -- -- 66
2018-06-07 11:00:00 15.7 15 Sudoeste 30 Sudoeste -- -- -- 73
2018-06-07 10:00:00 13.5 2 Noroeste 8 Norte -- -- -- 97
2018-06-07 09:00:00 10.6 4 Noroeste 7 Oeste -- -- -- 99
2018-06-07 08:00:00 9.6 0 Calma 7 Sur -- -- -- 99
2018-06-07 07:00:00 9 3 Sudoeste 9 Este -- -- -- 98
2018-06-07 06:00:00 9.6 5 Este 9 Este -- -- -- 98
2018-06-07 05:00:00 9.1 6 Sur 9 Sur -- -- -- 97
2018-06-07 04:00:00 10.1 5 Sudoeste 8 Oeste -- -- -- 98
2018-06-07 03:00:00 10.9 6 Oeste 17 Oeste -- -- -- 98
2018-06-07 02:00:00 11.3 12 Oeste 19 Oeste -- -- -- 97
2018-06-07 01:00:00 11.8 12 Sudoeste 23 Oeste -- -- -- 97
2018-06-07 00:00:00 11.7 10 Sudoeste 14 Oeste -- -- -- 96
2018-06-06 23:00:00 11.6 8 Sudoeste 12 Sudoeste -- -- -- 92
2018-06-06 22:00:00 13.3 10 Oeste 21 Oeste -- -- -- 85
2018-06-06 21:00:00 15 14 Oeste 24 Oeste -- -- -- 76
2018-06-06 20:00:00 16 11 Noroeste 24 Oeste -- -- -- 63
2018-06-06 19:00:00 16.7 11 Noroeste 18 Noroeste -- -- -- 58
2018-06-06 18:00:00 16.1 5 Noroeste 19 Noroeste -- -- -- 58
2018-06-06 17:00:00 16.7 9 Noroeste 19 Noroeste -- -- -- 58
2018-06-06 16:00:00 15.8 5 Norte 17 Nordeste -- -- -- 62
2018-06-06 15:00:00 14.7 9 Nordeste 18 Noroeste -- -- -- 65
2018-06-06 14:00:00 14.1 9 Noroeste 18 Noroeste -- -- -- 74
2018-06-06 13:00:00 12 10 Noroeste 19 Noroeste -- -- -- 83
2018-06-06 12:00:00 13.1 8 Norte 17 Norte -- -- -- 76
2018-06-06 11:00:00 10.8 5 Norte 15 Noroeste -- -- -- 94
2018-06-06 10:00:00 9.7 7 Norte 14 Norte -- -- -- 100
2018-06-06 09:00:00 9.2 9 Noroeste 15 Noroeste -- -- -- 100
2018-06-06 08:00:00 8.7 11 Noroeste 17 Noroeste -- -- -- 100
2018-06-06 07:00:00 8.7 3 Norte 9 Norte -- -- -- 100
2018-06-06 06:00:00 8.8 5 Norte 14 Noroeste -- -- -- 100
2018-06-06 05:00:00 8.8 8 Noroeste 15 Oeste -- -- -- 100
2018-06-06 04:00:00 8.8 11 Noroeste 21 Noroeste -- -- -- 100
2018-06-06 03:00:00 8.8 15 Noroeste 22 Oeste -- -- -- 100
2018-06-06 02:00:00 8.9 12 Oeste 22 Oeste -- -- -- 100
2018-06-06 01:00:00 8.8 14 Oeste 23 Oeste -- -- -- 99
2018-06-06 00:00:00 8.8 14 Oeste 23 Oeste -- -- -- 99
2018-06-05 23:00:00 8.8 14 Oeste 25 Oeste -- -- -- 98
2018-06-05 22:00:00 9.2 16 Oeste 26 Oeste -- -- -- 98
2018-06-05 21:00:00 9.5 8 Oeste 17 Oeste -- -- -- 97
2018-06-05 20:00:00 9.4 10 Oeste 15 Oeste -- -- -- 96
2018-06-05 19:00:00 9.4 7 Oeste 21 Oeste -- -- -- 93
2018-06-05 18:00:00 9.1 16 Oeste 28 Oeste -- -- -- 93
2018-06-05 17:00:00 9.8 18 Sudoeste 25 Oeste -- -- -- 93
2018-06-05 16:00:00 10.5 17 Oeste 27 Oeste -- -- -- 80
2018-06-05 15:00:00 10.8 18 Oeste 26 Oeste -- -- -- 75
2018-06-05 14:00:00 10.9 12 Oeste 18 Oeste -- -- -- 74
2018-06-05 13:00:00 10.2 8 Sudoeste 16 Oeste -- -- -- 84
2018-06-05 12:00:00 9.4 12 Oeste 21 Oeste -- -- -- 85
2018-06-05 11:00:00 9.5 13 Oeste 21 Oeste -- -- -- 86
2018-06-05 10:00:00 8.2 7 Oeste 15 Oeste -- -- -- 96
2018-06-05 09:00:00 7.6 10 Oeste 18 Oeste -- -- -- 98
2018-06-05 08:00:00 7.3 10 Oeste 17 Oeste -- -- -- 98
2018-06-05 07:00:00 7.1 6 Oeste 15 Oeste -- -- -- 97
2018-06-05 06:00:00 7.1 11 Oeste 18 Sudoeste -- -- -- 97
2018-06-05 05:00:00 7.1 12 Oeste 24 Oeste -- -- -- 96
2018-06-05 04:00:00 7.4 13 Oeste 19 Sudoeste -- -- -- 95
2018-06-05 03:00:00 7.5 11 Oeste 22 Oeste -- -- -- 95
2018-06-05 02:00:00 8 13 Oeste 22 Oeste -- -- -- 93
2018-06-05 01:00:00 8.3 17 Oeste 25 Oeste -- -- -- 92
2018-06-05 00:00:00 8.5 18 Oeste 26 Sudoeste -- -- -- 89
2018-06-04 23:00:00 8.8 17 Sudoeste 23 Sudoeste -- -- -- 86
2018-06-04 22:00:00 9.4 13 Oeste 33 Oeste -- -- -- 82
2018-06-04 21:00:00 11.2 23 Oeste 33 Oeste -- -- -- 75
2018-06-04 20:00:00 12.7 19 Oeste 37 Oeste -- -- -- 69
2018-06-04 19:00:00 13.4 23 Oeste 45 Oeste -- -- -- 68
2018-06-04 18:00:00 12.1 19 Oeste 28 Sudoeste -- -- -- 79
2018-06-04 17:00:00 10.6 14 Oeste 30 Sur -- -- -- 90
2018-06-04 16:00:00 13.1 19 Sur 33 Sur -- -- -- 69
2018-06-04 15:00:00 13.6 19 Sudoeste 33 Sudoeste -- -- -- 68
2018-06-04 14:00:00 12.2 18 Sudoeste 27 Sudoeste -- -- -- 73
2018-06-04 13:00:00 12.4 19 Oeste 36 Oeste -- -- -- 69
2018-06-04 12:00:00 11.6 21 Oeste 31 Oeste -- -- -- 75
2018-06-04 11:00:00 11.2 24 Oeste 33 Oeste -- -- -- 74
2018-06-04 10:00:00 9.6 16 Sudoeste 27 Sudoeste -- -- -- 83
2018-06-04 09:00:00 9.2 10 Sudoeste 18 Oeste -- -- -- 90
2018-06-04 08:00:00 8.5 10 Sudoeste 15 Sudoeste -- -- -- 91
2018-06-04 07:00:00 8.1 7 Sudoeste 16 Oeste -- -- -- 92
2018-06-04 06:00:00 8 5 Sur 10 Sudoeste -- -- -- 93
2018-06-04 05:00:00 7.9 11 Oeste 18 Oeste -- -- -- 93
2018-06-04 04:00:00 8.2 9 Oeste 19 Oeste -- -- -- 91
2018-06-04 03:00:00 8.4 10 Oeste 15 Oeste -- -- -- 90
2018-06-04 02:00:00 8.7 9 Oeste 17 Sudoeste -- -- -- 89
2018-06-04 01:00:00 8.9 12 Oeste 20 Sudoeste -- -- -- 89
2018-06-04 00:00:00 9.2 10 Sudoeste 25 Oeste -- -- -- 86
2018-06-03 23:00:00 9.8 12 Oeste 28 Oeste -- -- -- 83
2018-06-03 22:00:00 11.5 17 Oeste 25 Oeste -- -- -- 78
2018-06-03 21:00:00 13.2 14 Oeste 24 Oeste -- -- -- 75
2018-06-03 20:00:00 14.8 16 Oeste 28 Oeste -- -- -- 75
2018-06-03 19:00:00 15.8 15 Oeste 28 Oeste -- -- -- 73
2018-06-03 18:00:00 17.3 21 Sudoeste 28 Sudoeste -- -- -- 67
2018-06-03 17:00:00 17.1 16 Sudoeste 32 Sudoeste -- -- -- 62
2018-06-03 16:00:00 17.4 19 Sur 30 Sudoeste -- -- -- 64
2018-06-03 15:00:00 16.4 15 Sudoeste 25 Sudoeste -- -- -- 71
2018-06-03 14:00:00 17.1 9 Sur 21 Sudoeste -- -- -- 66
2018-06-03 13:00:00 16.2 9 Noroeste 16 Oeste -- -- -- 76
2018-06-03 12:00:00 14.4 6 Norte 12 Noroeste -- -- -- 81
2018-06-03 11:00:00 11.9 5 Oeste 14 Noroeste -- -- -- 89
2018-06-03 10:00:00 10.1 11 Oeste 20 Oeste -- -- -- 95
2018-06-03 09:00:00 9.1 12 Oeste 17 Oeste -- -- -- 94
2018-06-03 08:00:00 10 7 Sur 12 Sur -- -- -- 87
2018-06-03 07:00:00 8 8 Sur 13 Sudoeste -- -- -- 86
2018-06-03 06:00:00 8.3 6 Sudoeste 15 Sur -- -- -- 85
2018-06-03 05:00:00 9.1 14 Sur 17 Sur -- -- -- 84
2018-06-03 04:00:00 9.8 6 Sudoeste 14 Sur -- -- -- 85
2018-06-03 03:00:00 10.1 10 Sudoeste 15 Sudoeste -- -- -- 90
2018-06-03 02:00:00 11.4 10 Sudoeste 16 Sudoeste -- -- -- 86
2018-06-03 01:00:00 12.2 11 Sudoeste 23 Oeste -- -- -- 92
2018-06-03 00:00:00 12.8 13 Sudoeste 20 Sudoeste -- -- -- 92
2018-06-02 23:00:00 14 9 Sudoeste 18 Oeste -- -- -- 87
2018-06-02 22:00:00 15.5 13 Oeste 21 Oeste -- -- -- 79
2018-06-02 21:00:00 18.9 8 Noroeste 18 Oeste -- -- -- 52
2018-06-02 20:00:00 19.1 3 Sudeste 20 Sudeste -- -- -- 54
2018-06-02 19:00:00 17.8 8 Sudeste 23 Sudeste -- -- -- 64
2018-06-02 18:00:00 18.8 5 Sudoeste 12 Oeste -- -- -- 57
2018-06-02 17:00:00 18.2 5 Noroeste 22 Noroeste -- -- -- 57
2018-06-02 16:00:00 18.8 10 Noroeste 20 Noroeste -- -- -- 61
2018-06-02 15:00:00 17.7 4 Noroeste 15 Nordeste -- -- -- 60
2018-06-02 14:00:00 16.3 8 Norte 14 Norte -- -- -- 70
2018-06-02 13:00:00 14.6 5 Norte 12 Noroeste -- -- -- 78
2018-06-02 12:00:00 11.7 3 Norte 13 Oeste -- -- -- 89
2018-06-02 11:00:00 10.6 8 Noroeste 15 Noroeste -- -- -- 91
2018-06-02 10:00:00 9.9 9 Oeste 13 Noroeste -- -- -- 94
2018-06-02 09:00:00 8.7 6 Oeste 9 Oeste -- -- -- 97
2018-06-02 08:00:00 7.4 2 Sudoeste 9 Este -- -- -- 97
2018-06-02 07:00:00 7.2 4 Nordeste 8 Sudeste -- -- -- 97
2018-06-02 06:00:00 7.7 0 Calma 5 Este -- -- -- 96
2018-06-02 05:00:00 8.2 2 Nordeste 6 Este -- -- -- 95
2018-06-02 04:00:00 9.2 3 Nordeste 8 Este -- -- -- 93
2018-06-02 03:00:00 10.5 5 Este 12 Este -- -- -- 80
2018-06-02 02:00:00 10.5 3 Este 17 Este -- -- -- 87
2018-06-02 01:00:00 10.1 10 Este 15 Este -- -- -- 88
2018-06-02 00:00:00 9.9 8 Este 10 Este -- -- -- 91
2018-06-01 23:00:00 10.2 9 Este 12 Nordeste -- -- -- 90
2018-06-01 22:00:00 11.5 8 Nordeste 12 Este -- -- -- 88
2018-06-01 21:00:00 12.6 7 Nordeste 10 Nordeste -- -- -- 81
2018-06-01 20:00:00 12.6 5 Noroeste 13 Noroeste -- -- -- 77
2018-06-01 19:00:00 12.9 7 Oeste 23 Oeste -- -- -- 77
2018-06-01 18:00:00 12.9 13 Oeste 20 Oeste -- -- -- 79
2018-06-01 17:00:00 12.7 15 Oeste 25 Oeste -- -- -- 80
2018-06-01 16:00:00 14.1 17 Oeste 24 Oeste -- -- -- 76
2018-06-01 15:00:00 14.7 13 Noroeste 23 Oeste -- -- -- 77
2018-06-01 14:00:00 14.1 11 Noroeste 19 Oeste -- -- -- 80
2018-06-01 13:00:00 13.7 10 Noroeste 25 Sur -- -- -- 80
2018-06-01 12:00:00 13.7 14 Sudoeste 30 Sur -- -- -- 68
2018-06-01 11:00:00 12.5 4 Norte 10 Norte -- -- -- 87
2018-06-01 10:00:00 10.4 3 Norte 9 Norte -- -- -- 98
2018-06-01 09:00:00 9.8 5 Norte 8 Norte -- -- -- 99
2018-06-01 08:00:00 9.4 0 Calma 5 Sur -- -- -- 99
2018-06-01 07:00:00 9.2 0 Calma 13 Este -- -- -- 99
2018-06-01 06:00:00 9.3 12 Este 16 Nordeste -- -- -- 99
2018-06-01 05:00:00 9.4 5 Este 6 Este -- -- -- 99
2018-06-01 04:00:00 9.4 3 Noroeste 12 Noroeste -- -- -- 98
2018-06-01 03:00:00 9.6 7 Noroeste 11 Noroeste -- -- -- 98
2018-06-01 02:00:00 9.9 7 Oeste 14 Noroeste -- -- -- 98
2018-06-01 01:00:00 10.3 8 Oeste 15 Oeste -- -- -- 96
2018-06-01 00:00:00 11 3 Oeste 14 Oeste -- -- -- 93
2018-05-31 23:00:00 12.2 7 Oeste 14 Oeste -- -- -- 87
2018-05-31 22:00:00 13.2 5 Sur 14 Sudeste -- -- -- 78
2018-05-31 21:00:00 14.1 5 Sur 13 Sudoeste -- -- -- 74
2018-05-31 20:00:00 16.3 9 Sur 19 Oeste -- -- -- 64
2018-05-31 19:00:00 16.4 10 Oeste 22 Noroeste -- -- -- 61
2018-05-31 18:00:00 15.4 10 Oeste 21 Oeste -- -- -- 63
2018-05-31 17:00:00 14.6 14 Oeste 21 Oeste -- -- -- 66
2018-05-31 16:00:00 14.2 14 Oeste 27 Oeste -- -- -- 68
2018-05-31 15:00:00 13.2 18 Oeste 27 Oeste -- -- -- 74
2018-05-31 14:00:00 13.4 17 Oeste 30 Oeste -- -- -- 73
2018-05-31 13:00:00 12.5 12 Sudoeste 19 Oeste -- -- -- 82
2018-05-31 12:00:00 10.1 6 Sudoeste 14 Oeste -- -- -- 92
2018-05-31 11:00:00 9 7 Oeste 13 Oeste -- -- -- 98
2018-05-31 10:00:00 8.5 9 Oeste 14 Oeste -- -- -- 99
2018-05-31 09:00:00 8.5 9 Oeste 14 Oeste -- -- -- 99
2018-05-31 08:00:00 8.9 5 Oeste 8 Oeste -- -- -- 100
2018-05-31 07:00:00 8.9 6 Oeste 10 Oeste -- -- -- 99
2018-05-31 06:00:00 9.2 3 Oeste 9 Oeste -- -- -- 99
2018-05-31 05:00:00 9.3 6 Oeste 11 Oeste -- -- -- 99
2018-05-31 04:00:00 9.4 9 Oeste 13 Oeste -- -- -- 98
2018-05-31 03:00:00 9.8 4 Sudoeste 7 Sudoeste -- -- -- 98
2018-05-31 02:00:00 10 5 Oeste 11 Sudoeste -- -- -- 97
2018-05-31 01:00:00 10 8 Sudoeste 15 Oeste -- -- -- 97
2018-05-31 00:00:00 10.3 11 Oeste 18 Oeste -- -- -- 96
2018-05-30 23:00:00 10.4 9 Sudoeste 12 Sudoeste -- -- -- 97
2018-05-30 22:00:00 10.5 8 Sudoeste 16 Oeste -- -- -- 97
2018-05-30 21:00:00 10.9 11 Oeste 17 Oeste -- -- -- 97
2018-05-30 20:00:00 11 9 Sudoeste 21 Sudoeste -- -- -- 97
2018-05-30 19:00:00 11.3 15 Sudoeste 27 Sudoeste -- -- -- 96
2018-05-30 18:00:00 12.5 15 Sudoeste 28 Sudoeste -- -- -- 86
2018-05-30 17:00:00 14.4 16 Oeste 24 Noroeste -- -- -- 80
2018-05-30 16:00:00 13.5 12 Oeste 23 Oeste -- -- -- 83
2018-05-30 15:00:00 13.6 12 Oeste 19 Oeste -- -- -- 83
2018-05-30 14:00:00 11.8 12 Oeste 17 Oeste -- -- -- 92
2018-05-30 13:00:00 12.3 8 Sudoeste 15 Sudoeste -- -- -- 86
2018-05-30 12:00:00 11.5 6 Sudoeste 15 Oeste -- -- -- 99
2018-05-30 11:00:00 10.3 10 Oeste 15 Oeste -- -- -- 100
2018-05-30 10:00:00 9.9 8 Sudoeste 16 Sudoeste -- -- -- 100
2018-05-30 09:00:00 9.4 10 Oeste 17 Oeste -- -- -- 100
2018-05-30 08:00:00 9.2 8 Sudoeste 13 Sudoeste -- -- -- 99
2018-05-30 07:00:00 9.2 7 Sudoeste 13 Sur -- -- -- 99
2018-05-30 06:00:00 9 9 Sudoeste 15 Sudoeste -- -- -- 99
2018-05-30 05:00:00 9.1 10 Oeste 14 Oeste -- -- -- 99
2018-05-30 04:00:00 9.5 10 Oeste 17 Oeste -- -- -- 98
2018-05-30 03:00:00 9.7 9 Sudoeste 16 Sudoeste -- -- -- 98
2018-05-30 02:00:00 9.6 11 Sudoeste 14 Sudoeste -- -- -- 97
2018-05-30 01:00:00 10.1 8 Sudoeste 12 Oeste -- -- -- 96
2018-05-30 00:00:00 10.3 7 Sudoeste 15 Oeste -- -- -- 96
2018-05-29 23:00:00 10.2 11 Sudoeste 17 Sudoeste -- -- -- 95
2018-05-29 22:00:00 10.6 11 Sudoeste 26 Oeste -- -- -- 92
2018-05-29 21:00:00 12.9 14 Sudoeste 22 Oeste -- -- -- 88
2018-05-29 20:00:00 12.1 10 Sudoeste 17 Sur -- -- -- 86
2018-05-29 19:00:00 12.2 10 Sudoeste 17 Sudoeste -- -- -- 89
2018-05-29 18:00:00 12.5 5 Noroeste 18 Noroeste -- -- -- 88
2018-05-29 17:00:00 12.6 17 Noroeste 27 Noroeste -- -- -- 85
2018-05-29 16:00:00 14.9 13 Sudoeste 30 Sudoeste -- -- -- 68
2018-05-29 15:00:00 15.3 18 Sudoeste 28 Oeste -- -- -- 70
2018-05-29 14:00:00 14.4 14 Sudoeste 23 Sudoeste -- -- -- 72
2018-05-29 13:00:00 11.6 7 Sur 36 Sudeste -- -- -- 85
2018-05-29 12:00:00 12.7 13 Sudoeste 19 Sudoeste -- -- -- 80
2018-05-29 11:00:00 10.8 6 Sudoeste 18 Sudoeste -- -- -- 88
2018-05-29 10:00:00 10.6 0 Calma 9 Nordeste -- -- -- 100
2018-05-29 09:00:00 9.7 3 Noroeste 6 Noroeste -- -- -- 100
2018-05-29 08:00:00 9.5 3 Oeste 8 Norte -- -- -- 99
2018-05-29 07:00:00 9.4 4 Norte 10 Noroeste -- -- -- 99
2018-05-29 06:00:00 9.5 4 Norte 12 Noroeste -- -- -- 99
2018-05-29 05:00:00 9.5 3 Oeste 6 Oeste -- -- -- 98
2018-05-29 04:00:00 9 6 Sur 10 Sur -- -- -- 98
2018-05-29 03:00:00 8.6 9 Sur 10 Sur -- -- -- 98
2018-05-29 02:00:00 9.2 0 Calma 5 Sudeste -- -- -- 97
2018-05-29 01:00:00 9.7 3 Sudeste 6 Sur -- -- -- 98
2018-05-29 00:00:00 9 5 Sudeste 15 Sur -- -- -- 96
2018-05-28 23:00:00 9.5 10 Sur 14 Sur -- -- -- 95
2018-05-28 22:00:00 10.7 6 Este 12 Sur -- -- -- 94
2018-05-28 21:00:00 11.2 8 Sur 17 Sudoeste -- -- -- 95
2018-05-28 20:00:00 11.3 13 Sudoeste 18 Sudoeste -- -- -- 92
2018-05-28 19:00:00 12.3 4 Sudeste 11 Sur -- -- -- 92
2018-05-28 18:00:00 12.9 8 Sur 15 Sur -- -- -- 89
2018-05-28 17:00:00 13.1 5 Oeste 15 Oeste -- -- -- 91
2018-05-28 16:00:00 12.7 6 Noroeste 13 Oeste -- -- -- 92
2018-05-28 15:00:00 12.7 4 Norte 15 Norte -- -- -- 92
2018-05-28 14:00:00 12.7 5 Norte 14 Norte -- -- -- 89
2018-05-28 13:00:00 12.6 6 Norte 11 Norte -- -- -- 95
2018-05-28 12:00:00 10.9 3 Norte 7 Noroeste -- -- -- 100
2018-05-28 11:00:00 9.2 3 Oeste 9 Noroeste -- -- -- 100
2018-05-28 10:00:00 8.7 5 Noroeste 9 Norte -- -- -- 100
2018-05-28 09:00:00 8.3 2 Oeste 8 Oeste -- -- -- 100
2018-05-28 08:00:00 8.2 4 Oeste 9 Oeste -- -- -- 100
2018-05-28 07:00:00 8.3 7 Oeste 15 Oeste -- -- -- 99
2018-05-28 06:00:00 9.1 8 Oeste 14 Noroeste -- -- -- 99
2018-05-28 05:00:00 9.7 10 Oeste 14 Oeste -- -- -- 98
2018-05-28 04:00:00 10.1 3 Sudoeste 10 Noroeste -- -- -- 98
2018-05-28 03:00:00 10.3 9 Noroeste 13 Oeste -- -- -- 98
2018-05-28 02:00:00 10.8 6 Sudoeste 12 Sudoeste -- -- -- 97
2018-05-28 01:00:00 10.3 9 Sur 13 Sudoeste -- -- -- 95
2018-05-28 00:00:00 10.9 4 Sur 11 Sur -- -- -- 94
2018-05-27 23:00:00 11.2 5 Sur 13 Sur -- -- -- 94
2018-05-27 22:00:00 11.6 8 Sur 11 Sur -- -- -- 93
2018-05-27 21:00:00 11.9 5 Sudoeste 19 Oeste -- -- -- 94
2018-05-27 20:00:00 13.7 14 Noroeste 19 Noroeste -- -- -- 90
2018-05-27 19:00:00 14.6 4 Oeste 10 Sudoeste -- -- -- 82
2018-05-27 18:00:00 14.2 6 Sudoeste 15 Sudoeste -- -- -- 84
2018-05-27 17:00:00 14.5 4 Sudoeste 18 Sudeste -- -- -- 85
2018-05-27 16:00:00 13.2 13 Sudeste 28 Sudeste -- -- -- 88
2018-05-27 15:00:00 15.4 9 Sudeste 23 Oeste -- -- -- 79
2018-05-27 14:00:00 17.1 14 Noroeste 28 Noroeste -- -- -- 61
2018-05-27 13:00:00 17.5 16 Oeste 25 Oeste -- -- -- 69
2018-05-27 12:00:00 17.1 14 Oeste 22 Oeste -- -- -- 61
2018-05-27 11:00:00 16.3 9 Oeste 14 Oeste -- -- -- 63
2018-05-27 10:00:00 14.6 3 Oeste 8 Oeste -- -- -- 68
2018-05-27 09:00:00 11.9 4 Sudeste 10 Este -- -- -- 88
2018-05-27 08:00:00 10.2 4 Sudeste 11 Sur -- -- -- 92
2018-05-27 07:00:00 9.8 5 Sudeste 8 Sur -- -- -- 95
2018-05-27 06:00:00 9.7 5 Sudeste 6 Sudeste -- -- -- 94
2018-05-27 05:00:00 9.7 6 Sudeste 9 Sur -- -- -- 94
2018-05-27 04:00:00 9.4 4 Sur 10 Sur -- -- -- 92
2018-05-27 03:00:00 8.8 9 Sur 13 Sur -- -- -- 91
2018-05-27 02:00:00 8.6 10 Sur 17 Sur -- -- -- 92
2018-05-27 01:00:00 8.2 13 Sur 17 Sur -- -- -- 92
2018-05-27 00:00:00 8.7 11 Sur 18 Sur -- -- -- 90
2018-05-26 23:00:00 9.2 15 Sur 17 Sur -- -- -- 89
2018-05-26 22:00:00 11.1 10 Sur 14 Sur -- -- -- 84
2018-05-26 21:00:00 14.5 4 Oeste 9 Oeste -- -- -- 73
2018-05-26 20:00:00 14.6 4 Sudoeste 14 Oeste -- -- -- 75
2018-05-26 19:00:00 14.3 9 Oeste 19 Oeste -- -- -- 81
2018-05-26 18:00:00 15.1 6 Noroeste 13 Oeste -- -- -- 76
2018-05-26 17:00:00 14 5 Este 17 Este -- -- -- 76
2018-05-26 16:00:00 15.6 7 Sudeste 17 Sudoeste -- -- -- 78
2018-05-26 15:00:00 12.7 13 Sudoeste 19 Sudoeste -- -- -- 89
2018-05-26 14:00:00 11.6 4 Sudoeste 23 Sudoeste -- -- -- 88
2018-05-26 13:00:00 13.4 15 Oeste 24 Oeste -- -- -- 75
2018-05-26 12:00:00 14 15 Sudoeste 23 Sur -- -- -- 66
2018-05-26 11:00:00 13.4 13 Sur 20 Sur -- -- -- 72
2018-05-26 10:00:00 12.8 5 Sur 14 Sudeste -- -- -- 73
2018-05-26 09:00:00 10.9 0 Calma 16 Sur -- -- -- 82
2018-05-26 08:00:00 7.3 11 Sur 15 Sur -- -- -- 95
2018-05-26 07:00:00 6.9 11 Sur 14 Sur -- -- -- 93
2018-05-26 06:00:00 7.7 8 Sur 13 Sur -- -- -- 93
2018-05-26 05:00:00 8.4 8 Sur 26 Sudeste -- -- -- 90
2018-05-26 04:00:00 9.2 11 Sudeste 20 Sudeste -- -- -- 93
2018-05-26 03:00:00 7 9 Sur 13 Sur -- -- -- 94
2018-05-26 02:00:00 7.4 6 Sur 14 Sur -- -- -- 92
2018-05-26 01:00:00 7.9 10 Sur 18 Sur -- -- -- 91
2018-05-26 00:00:00 8.6 6 Sur 8 Sur -- -- -- 89
2018-05-25 23:00:00 9.6 5 Sur 10 Sur -- -- -- 87
2018-05-25 22:00:00 9.9 6 Sudeste 10 Sudeste -- -- -- 86
2018-05-25 21:00:00 11.7 6 Sudeste 8 Sudeste -- -- -- 81
2018-05-25 20:00:00 13.2 8 Sur 19 Sudeste -- -- -- 67
2018-05-25 19:00:00 14.7 14 Sudoeste 20 Sudoeste -- -- -- 57
2018-05-25 18:00:00 14 4 Sudoeste 16 Sur -- -- -- 64
2018-05-25 17:00:00 12.5 13 Sur 23 Sur -- -- -- 73
2018-05-25 16:00:00 12.4 9 Sudoeste 29 Sur -- -- -- 78
2018-05-25 15:00:00 12.6 22 Sur 30 Sudeste -- -- -- 77
2018-05-25 14:00:00 14.2 21 Sudeste 30 Sudeste -- -- -- 69
2018-05-25 13:00:00 14.1 12 Sur 22 Sur -- -- -- 69
2018-05-25 12:00:00 13.1 12 Sur 28 Sur -- -- -- 75
2018-05-25 11:00:00 12.1 4 Este 19 Sudeste -- -- -- 80
2018-05-25 10:00:00 12.1 7 Sudoeste 22 Sudoeste -- -- -- 83
2018-05-25 09:00:00 9.9 4 Oeste 6 Noroeste -- -- -- 97
2018-05-25 08:00:00 8.3 5 Sur 8 Sur -- -- -- 97
2018-05-25 07:00:00 8.5 0 Calma 9 Sur -- -- -- 97
2018-05-25 06:00:00 8.4 4 Sur 8 Sur -- -- -- 96
2018-05-25 05:00:00 9 3 Sudeste 17 Sur -- -- -- 94
2018-05-25 04:00:00 10.1 8 Sur 16 Este -- -- -- 94
2018-05-25 03:00:00 10.9 5 Este 13 Sudeste -- -- -- 95
2018-05-25 02:00:00 11.6 15 Sur 24 Sudeste -- -- -- 93
2018-05-25 01:00:00 12.1 6 Sudeste 12 Sudeste -- -- -- 97
2018-05-25 00:00:00 12.7 4 Norte 12 Sur -- -- -- 97
2018-05-24 23:00:00 12.6 12 Sudoeste 18 Sudoeste -- -- -- 96
2018-05-24 22:00:00 13.2 14 Sudoeste 26 Sudoeste -- -- -- 95
2018-05-24 21:00:00 14.1 9 Sudoeste 22 Sur -- -- -- 92
2018-05-24 20:00:00 14.8 6 Nordeste 13 Sudeste -- -- -- 93
2018-05-24 19:00:00 15.4 9 Nordeste 14 Nordeste -- -- -- 90
2018-05-24 18:00:00 15 6 Nordeste 15 Nordeste -- -- -- 92
2018-05-24 17:00:00 13.9 9 Nordeste 17 Nordeste -- -- -- 94
2018-05-24 16:00:00 13.1 14 Nordeste 26 Nordeste -- -- -- 95
2018-05-24 15:00:00 13.2 15 Nordeste 22 Nordeste -- -- -- 95
2018-05-24 14:00:00 13 5 Nordeste 13 Nordeste -- -- -- 94
2018-05-24 13:00:00 13.3 4 Norte 12 Nordeste -- -- -- 89
2018-05-24 12:00:00 13.5 8 Norte 18 Sur -- -- -- 89
2018-05-24 11:00:00 14.2 4 Oeste 15 Oeste -- -- -- 81
2018-05-24 10:00:00 14.9 4 Oeste 30 Este -- -- -- 76
2018-05-24 09:00:00 16.3 17 Este 25 Este -- -- -- 62
2018-05-24 08:00:00 15.6 14 Este 20 Este -- -- -- 62
2018-05-24 07:00:00 14.7 13 Este 19 Este -- -- -- 66
2018-05-24 06:00:00 13.1 9 Este 12 Este -- -- -- 74
2018-05-24 05:00:00 10.9 9 Sur 14 Sur -- -- -- 83
2018-05-24 04:00:00 10.8 10 Sudeste 15 Sur -- -- -- 82
2018-05-24 03:00:00 12.4 7 Sur 17 Sur -- -- -- 77
2018-05-24 02:00:00 13.2 13 Sur 16 Sur -- -- -- 75
2018-05-24 01:00:00 12.5 10 Sur 14 Sur -- -- -- 77
2018-05-24 00:00:00 12.4 5 Sur 12 Sur -- -- -- 76
2018-05-23 23:00:00 13.6 6 Sur 16 Sur -- -- -- 70
2018-05-23 22:00:00 15.6 11 Sudoeste 18 Sudoeste -- -- -- 61
2018-05-23 21:00:00 18.8 13 Sudoeste 33 Sur -- -- -- 53
2018-05-23 20:00:00 20.1 21 Sudoeste 33 Sudoeste -- -- -- 50
2018-05-23 19:00:00 20 12 Sudoeste 34 Sudoeste -- -- -- 50
2018-05-23 18:00:00 20.8 15 Sur 28 Sudoeste -- -- -- 46
2018-05-23 17:00:00 20.3 18 Sudoeste 35 Sudoeste -- -- -- 50
2018-05-23 16:00:00 20.9 8 Sudeste 28 Sudoeste -- -- -- 47
2018-05-23 15:00:00 21 15 Sur 29 Sur -- -- -- 46
2018-05-23 14:00:00 19.9 15 Sudeste 27 Sudeste -- -- -- 51
2018-05-23 13:00:00 19.9 8 Sur 37 Sudoeste -- -- -- 53
2018-05-23 12:00:00 18.9 10 Sur 24 Sudeste -- -- -- 58
2018-05-23 11:00:00 18.4 9 Sur 24 Sudeste -- -- -- 60
2018-05-23 10:00:00 17.7 7 Sudeste 19 Sudeste -- -- -- 62
2018-05-23 09:00:00 15.7 3 Sudeste 11 Sur -- -- -- 70
2018-05-23 08:00:00 12 10 Sur 15 Sur -- -- -- 82
2018-05-23 07:00:00 10.5 14 Sur 16 Sur -- -- -- 84
2018-05-23 06:00:00 10.6 13 Sur 17 Sur -- -- -- 82
2018-05-23 05:00:00 10.3 15 Sur 19 Sur -- -- -- 82
2018-05-23 04:00:00 10.8 15 Sur 18 Sur -- -- -- 81
2018-05-23 03:00:00 11 14 Sur 18 Sur -- -- -- 81
2018-05-23 02:00:00 12 15 Sur 18 Sur -- -- -- 79
2018-05-23 01:00:00 12.9 12 Sur 14 Sur -- -- -- 75
2018-05-23 00:00:00 12.9 7 Sur 12 Sur -- -- -- 75
2018-05-22 23:00:00 14.1 9 Sur 12 Sur -- -- -- 71
2018-05-22 22:00:00 15.4 6 Sur 10 Sur -- -- -- 64
2018-05-22 21:00:00 18.1 5 Sudeste 22 Sudeste -- -- -- 55
2018-05-22 20:00:00 18.3 14 Sudeste 24 Sudeste -- -- -- 53
2018-05-22 19:00:00 19.7 16 Sudeste 29 Sudeste -- -- -- 51
2018-05-22 18:00:00 19.3 13 Sur 27 Sur -- -- -- 49
2018-05-22 17:00:00 19.7 0 Calma 9 Noroeste -- -- -- 49
2018-05-22 16:00:00 19.5 5 Oeste 13 Norte -- -- -- 49
2018-05-22 15:00:00 18.8 5 Norte 13 Norte -- -- -- 50
2018-05-22 14:00:00 18.2 6 Noroeste 11 Noroeste -- -- -- 54
2018-05-22 13:00:00 18.4 6 Sudeste 22 Este -- -- -- 51
2018-05-22 12:00:00 17.9 7 Este 17 Oeste -- -- -- 58
2018-05-22 11:00:00 17.5 8 Oeste 14 Oeste -- -- -- 60
2018-05-22 10:00:00 16.9 5 Sudeste 10 Sudeste -- -- -- 62
2018-05-22 09:00:00 14.2 4 Sur 15 Sur -- -- -- 75
2018-05-22 08:00:00 9.8 10 Sur 15 Sur -- -- -- 88
2018-05-22 07:00:00 8.9 13 Sur 18 Sur -- -- -- 88
2018-05-22 06:00:00 8.8 12 Sur 16 Sur -- -- -- 88
2018-05-22 05:00:00 9.2 13 Sur 20 Sur -- -- -- 82
2018-05-22 04:00:00 8.6 19 Sur 23 Sur -- -- -- 86
2018-05-22 03:00:00 8.8 16 Sur 19 Sur -- -- -- 86
2018-05-22 02:00:00 9.3 11 Sur 13 Sur -- -- -- 87
2018-05-22 01:00:00 10.4 10 Sur 12 Sur -- -- -- 86
2018-05-22 00:00:00 11.2 9 Sur 15 Sudoeste -- -- -- 82